createdAt,value
2022-08-25T00:00:46.969Z,96852.63
2022-08-25T00:03:13.733Z,96812.38
2022-08-25T00:05:40.441Z,96766.44
2022-08-25T00:08:07.613Z,96698.97
2022-08-25T00:10:38.021Z,96763.00
2022-08-25T00:13:04.976Z,96797.81
2022-08-25T00:15:32.444Z,96824.72
2022-08-25T00:18:00.185Z,96801.84
2022-08-25T00:20:28.169Z,96744.63
2022-08-25T00:22:56.121Z,96707.22
2022-08-25T00:25:23.611Z,96778.59
2022-08-25T00:27:51.360Z,96784.25
2022-08-25T00:30:18.512Z,96777.97
2022-08-25T00:32:48.893Z,96521.56
2022-08-25T00:35:23.121Z,96765.25
2022-08-25T00:37:49.908Z,96771.75
2022-08-25T00:40:16.621Z,96779.63
2022-08-25T00:42:43.271Z,96741.19
2022-08-25T00:45:18.928Z,96778.22
2022-08-25T00:47:45.582Z,96762.63
2022-08-25T00:50:12.283Z,96767.50
2022-08-25T00:52:42.352Z,96760.00
2022-08-25T00:55:10.065Z,96820.88
2022-08-25T00:58:06.827Z,96827.97
2022-08-25T01:00:37.100Z,96764.06
2022-08-25T01:03:04.008Z,96766.91
2022-08-25T01:05:30.648Z,96713.50
2022-08-25T01:07:58.610Z,96785.94
2022-08-25T01:10:26.120Z,96723.22
2022-08-25T01:12:52.915Z,96813.84
2022-08-25T01:15:19.649Z,96783.69
2022-08-25T01:17:51.145Z,96725.69
2022-08-25T01:20:19.902Z,96738.19
2022-08-25T01:22:49.231Z,96782.91
2022-08-25T01:25:31.286Z,96825.16
2022-08-25T01:27:57.925Z,96784.91
2022-08-25T01:30:24.737Z,96729.09
2022-08-25T01:32:51.367Z,96720.16
2022-08-25T01:35:19.180Z,96818.50
2022-08-25T01:37:45.857Z,96752.16
2022-08-25T01:40:12.973Z,96796.03
2022-08-25T01:42:46.990Z,96640.63
2022-08-25T01:45:14.020Z,96694.25
2022-08-25T01:47:40.632Z,96576.13
2022-08-25T01:50:07.734Z,96603.63
2022-08-25T01:52:39.420Z,96759.78
2022-08-25T01:55:06.777Z,96672.19
2022-08-25T01:57:33.553Z,96770.06
2022-08-25T02:00:01.914Z,96773.72
2022-08-25T02:02:28.618Z,96673.56
2022-08-25T02:04:58.450Z,96829.00
2022-08-25T02:07:26.836Z,96694.81
2022-08-25T02:09:54.780Z,96762.41
2022-08-25T02:12:21.592Z,96664.47
2022-08-25T02:14:48.867Z,96791.56
2022-08-25T02:17:15.478Z,96785.06
2022-08-25T02:19:42.085Z,96769.69
2022-08-25T02:22:08.758Z,96720.53
2022-08-25T02:24:35.363Z,96774.59
2022-08-25T02:27:04.085Z,96778.84
2022-08-25T02:29:30.799Z,96779.06
2022-08-25T02:31:57.581Z,96814.47
2022-08-25T02:34:24.192Z,96741.63
2022-08-25T02:36:50.853Z,96610.00
2022-08-25T02:39:17.455Z,96815.47
2022-08-25T02:41:44.273Z,96772.56
2022-08-25T02:44:11.108Z,96810.19
2022-08-25T02:46:37.810Z,96785.91
2022-08-25T02:49:05.346Z,96801.50
2022-08-25T02:51:32.153Z,96740.00
2022-08-25T02:53:59.652Z,96728.91
2022-08-25T02:56:26.402Z,96691.66
2022-08-25T02:58:53.043Z,96780.84
2022-08-25T03:01:19.746Z,96783.69
2022-08-25T03:03:48.754Z,96818.91
2022-08-25T03:06:18.545Z,96802.91
2022-08-25T03:08:45.461Z,96695.94
2022-08-25T03:11:12.387Z,96711.91
2022-08-25T03:13:39.007Z,96682.75
2022-08-25T03:16:10.851Z,96773.97
2022-08-25T03:18:39.282Z,96727.28
2022-08-25T03:21:07.127Z,96768.34
2022-08-25T03:23:33.928Z,96767.31
2022-08-25T03:26:19.235Z,96770.97
2022-08-25T03:28:45.878Z,96673.06
2022-08-25T03:31:12.531Z,96785.91
2022-08-25T03:33:40.212Z,96782.06
2022-08-25T03:36:07.454Z,96669.25
2022-08-25T03:38:34.133Z,96746.69
2022-08-25T03:41:02.253Z,96815.66
2022-08-25T03:43:28.902Z,96769.53
2022-08-25T03:45:55.559Z,96673.06
2022-08-25T03:48:22.270Z,96789.97
2022-08-25T03:50:51.946Z,96688.44
2022-08-25T03:53:19.565Z,96585.34
2022-08-25T03:55:46.336Z,96775.81
2022-08-25T03:58:12.936Z,96753.78
2022-08-25T04:00:39.616Z,96786.72
2022-08-25T04:03:06.545Z,96795.22
2022-08-25T04:05:33.181Z,96793.19
2022-08-25T04:08:01.885Z,96714.13
2022-08-25T04:10:29.016Z,96709.50
2022-08-25T04:12:56.250Z,96771.56
2022-08-25T04:15:23.089Z,96751.16
2022-08-25T04:17:51.859Z,96767.13
2022-08-25T04:20:19.003Z,96770.97
2022-08-25T04:22:45.723Z,96763.28
2022-08-25T04:25:12.561Z,96766.09
2022-08-25T04:27:39.145Z,96750.94
2022-08-25T04:30:06.694Z,96775.22
2022-08-25T04:32:33.398Z,96779.84
2022-08-25T04:35:00.103Z,96807.78
2022-08-25T04:37:26.758Z,96797.03
2022-08-25T04:39:53.405Z,96792.00
2022-08-25T04:42:20.414Z,96761.66
2022-08-25T04:44:47.019Z,96799.06
2022-08-25T04:47:13.699Z,96802.50
2022-08-25T04:49:40.620Z,96766.53
2022-08-25T04:52:13.092Z,96711.69
2022-08-25T04:54:41.575Z,96783.47
2022-08-25T04:57:08.178Z,96723.63
2022-08-25T04:59:34.956Z,96703.81
2022-08-25T05:02:05.431Z,96723.03
2022-08-25T05:04:33.438Z,96773.78
2022-08-25T05:07:00.236Z,96762.88
2022-08-25T05:09:27.211Z,96751.94
2022-08-25T05:11:54.926Z,96704.66
2022-08-25T05:14:23.195Z,96799.25
2022-08-25T05:16:52.578Z,96759.22
2022-08-25T05:19:19.525Z,96656.50
2022-08-25T05:21:46.143Z,96722.00
2022-08-25T05:24:12.755Z,96637.91
2022-08-25T05:26:39.780Z,96769.13
2022-08-25T05:29:06.913Z,96569.22
2022-08-25T06:47:09.857Z,96767.59
2022-08-25T06:49:36.611Z,96761.31
2022-08-25T06:52:03.635Z,96701.50
2022-08-25T06:54:30.323Z,96776.63
2022-08-25T06:56:57.045Z,96723.44
2022-08-25T06:59:25.233Z,96728.69
2022-08-25T07:01:59.470Z,96763.06
2022-08-25T07:04:26.515Z,96680.19
2022-08-25T07:06:53.123Z,96804.03
2022-08-25T07:09:19.750Z,96796.97
2022-08-25T07:11:46.639Z,96749.03
2022-08-25T07:14:16.201Z,96716.16
2022-08-25T07:16:48.597Z,96765.84
2022-08-25T07:19:16.314Z,96724.19
2022-08-25T07:21:45.910Z,96785.63
2022-08-25T07:24:13.591Z,96725.63
2022-08-25T07:26:42.120Z,96750.91
2022-08-25T07:29:17.484Z,96776.56
2022-08-25T07:31:44.415Z,96685.88
2022-08-25T07:34:29.702Z,96763.81
2022-08-25T07:36:56.837Z,96791.72
2022-08-25T07:39:23.788Z,96752.53
2022-08-25T07:41:52.197Z,96774.53
2022-08-25T07:44:19.112Z,96770.47
2022-08-25T07:46:45.840Z,96815.69
2022-08-25T07:49:17.151Z,96786.53
2022-08-25T07:52:03.963Z,96731.16
2022-08-25T07:54:34.052Z,96746.03
2022-08-25T07:57:03.164Z,96786.59
2022-08-25T07:59:29.841Z,96747.56
2022-08-25T08:01:57.411Z,96724.06
2022-08-25T08:04:24.626Z,96734.94
2022-08-25T08:06:54.571Z,96753.63
2022-08-25T08:09:21.265Z,96662.50
2022-08-25T08:11:53.863Z,96750.78
2022-08-25T08:14:21.146Z,96775.13
2022-08-25T08:16:47.861Z,96781.13
2022-08-25T08:19:30.016Z,96817.19
2022-08-25T08:21:56.625Z,96759.34
2022-08-25T08:24:44.367Z,96801.63
2022-08-25T08:27:11.627Z,96794.22
2022-08-25T08:29:39.148Z,96776.88
2022-08-25T08:32:06.971Z,96756.75
2022-08-25T08:34:34.057Z,96789.06
2022-08-25T08:37:00.749Z,96750.84
2022-08-25T08:39:28.262Z,96775.19
2022-08-25T08:42:18.285Z,96816.72
2022-08-25T08:44:44.787Z,96815.03
2022-08-25T08:47:27.418Z,96816.53
2022-08-25T08:50:30.693Z,96813.06
2022-08-25T08:53:05.244Z,96811.13
2022-08-25T08:55:35.810Z,96744.59
2022-08-25T08:58:09.957Z,96812.84
2022-08-25T09:00:40.794Z,96788.75
2022-08-25T09:03:13.223Z,96770.31
2022-08-25T09:05:46.859Z,96809.97
2022-08-25T09:08:14.777Z,96740.44
2022-08-25T09:11:00.329Z,96743.63
2022-08-25T09:13:36.084Z,96817.34
2022-08-25T09:16:46.834Z,96802.34
2022-08-25T09:19:21.270Z,96811.13
2022-08-25T09:21:58.384Z,96809.38
2022-08-25T09:24:57.401Z,96750.78
2022-08-25T09:27:33.066Z,96806.34
2022-08-25T09:30:10.901Z,96803.09
2022-08-25T09:32:52.494Z,96719.34
2022-08-25T09:35:27.771Z,96706.81
2022-08-25T09:38:09.284Z,96707.59
2022-08-25T09:40:38.196Z,96717.66
2022-08-25T09:43:31.929Z,96686.69
2022-08-25T09:46:26.955Z,96792.25
2022-08-25T09:48:56.056Z,96781.72
2022-08-25T09:51:42.995Z,96782.84
2022-08-25T09:54:13.782Z,96776.22
2022-08-25T09:56:57.745Z,96742.50
2022-08-25T09:59:34.751Z,96733.66
2022-08-25T10:02:27.685Z,96773.88
2022-08-25T10:04:54.451Z,96736.06
2022-08-25T10:07:21.007Z,96762.94
2022-08-25T10:10:01.806Z,96729.16
2022-08-25T10:12:37.482Z,96765.09
2022-08-25T10:15:30.469Z,96714.00
2022-08-25T10:18:19.049Z,96729.13
2022-08-25T10:20:53.361Z,96763.66
2022-08-25T10:23:20.010Z,96733.69
2022-08-25T10:25:57.827Z,96760.53
2022-08-25T10:28:38.476Z,96627.75
2022-08-25T10:31:41.960Z,96749.44
2022-08-25T10:34:31.659Z,96720.59
2022-08-25T10:37:32.723Z,96745.84
2022-08-25T10:40:11.034Z,96678.66
2022-08-25T10:42:57.428Z,96748.88
2022-08-25T10:45:43.486Z,96697.19
2022-08-25T10:48:32.096Z,96715.97
2022-08-25T10:51:19.583Z,96731.84
2022-08-25T10:54:19.674Z,96730.03
2022-08-25T10:57:01.950Z,96660.44
2022-08-25T10:59:58.472Z,96701.94
2022-08-25T11:02:41.405Z,96731.09
2022-08-25T11:05:24.611Z,96730.03
2022-08-25T11:07:54.499Z,96626.28
2022-08-25T11:10:43.945Z,96721.50
2022-08-25T11:13:16.568Z,96673.03
2022-08-25T11:16:15.878Z,96690.94
2022-08-25T11:19:11.230Z,96691.25
2022-08-25T11:21:43.210Z,96628.88
2022-08-25T11:24:13.029Z,96715.03
2022-08-25T11:26:40.535Z,96654.84
2022-08-25T11:29:16.615Z,96701.69
2022-08-25T11:31:50.762Z,96680.00
2022-08-25T11:34:19.852Z,96681.81
2022-08-25T11:36:52.060Z,96670.38
2022-08-25T11:39:37.434Z,96695.56
2022-08-25T11:42:34.117Z,96691.31
2022-08-25T11:45:13.067Z,96688.31
2022-08-25T11:48:11.521Z,96681.34
2022-08-25T11:51:03.077Z,96684.31
2022-08-25T11:53:33.654Z,96607.16
2022-08-25T11:56:09.049Z,96593.44
2022-08-25T11:58:51.847Z,96654.00
2022-08-25T12:01:40.249Z,96675.69
2022-08-25T12:04:15.193Z,96671.50
2022-08-25T12:07:06.943Z,96675.59
2022-08-25T12:09:54.600Z,96652.03
2022-08-25T12:12:31.628Z,96523.38
2022-08-25T12:15:54.187Z,96674.34
2022-08-25T12:18:23.752Z,96672.00
2022-08-25T12:20:54.433Z,96674.41
2022-08-25T12:23:44.794Z,96674.75
2022-08-25T12:26:42.778Z,96673.19
2022-08-25T12:29:40.874Z,96671.91
2022-08-25T12:32:41.173Z,96668.75
2022-08-25T12:35:10.888Z,96674.16
2022-08-25T12:37:57.507Z,96568.09
2022-08-25T12:40:31.883Z,96657.66
2022-08-25T12:43:20.583Z,96661.69
2022-08-25T12:46:20.463Z,96661.41
2022-08-25T12:49:00.911Z,96627.41
2022-08-25T12:51:33.508Z,96659.28
2022-08-25T12:54:22.920Z,96653.16
2022-08-25T12:56:57.912Z,96611.19
2022-08-25T12:59:34.000Z,96395.97
2022-08-25T13:02:09.997Z,96649.41
2022-08-25T13:05:15.425Z,96646.44
2022-08-25T13:07:57.260Z,96613.75
2022-08-25T13:10:34.258Z,96544.31
2022-08-25T13:13:10.812Z,96643.47
2022-08-25T13:15:41.509Z,96644.75
2022-08-25T13:18:29.087Z,96565.59
2022-08-25T13:21:27.832Z,96602.00
2022-08-25T13:24:01.479Z,96591.31
2022-08-25T13:26:34.116Z,96566.19
2022-08-25T13:29:13.614Z,96567.59
2022-08-25T13:31:54.093Z,96539.06
2022-08-25T13:34:23.575Z,96405.72
2022-08-25T13:37:31.242Z,96633.13
2022-08-25T13:40:27.095Z,96478.63
2022-08-25T13:42:57.579Z,96536.13
2022-08-25T13:45:26.370Z,96589.22
2022-08-25T13:47:55.827Z,96609.53
2022-08-25T13:50:26.465Z,96638.44
2022-08-25T13:52:57.034Z,96506.91
2022-08-25T13:55:27.474Z,96588.69
2022-08-25T13:57:55.781Z,96579.34
2022-08-25T14:00:43.482Z,96582.31
2022-08-25T14:03:34.229Z,96516.25
2022-08-25T14:06:25.672Z,96624.19
2022-08-25T14:08:58.598Z,96613.25
2022-08-25T14:11:45.073Z,96509.22
2022-08-25T14:14:24.819Z,96574.44
2022-08-25T14:17:21.917Z,96610.00
2022-08-25T14:19:53.548Z,96419.69
2022-08-25T14:22:20.197Z,96563.94
2022-08-25T14:24:46.822Z,96522.28
2022-08-25T14:27:13.445Z,96575.97
2022-08-25T14:29:41.319Z,96560.94
2022-08-25T14:32:08.014Z,96521.72
2022-08-25T14:34:36.960Z,96586.16
2022-08-25T14:37:18.849Z,96586.69
2022-08-25T14:39:46.087Z,96571.84
2022-08-25T14:42:13.588Z,96559.81
2022-08-25T14:44:40.236Z,96507.97
2022-08-25T14:47:07.145Z,96440.91
2022-08-25T14:49:36.476Z,96601.50
2022-08-25T14:52:18.781Z,96499.84
2022-08-25T14:54:49.254Z,96552.78
2022-08-25T14:57:21.205Z,96578.16
2022-08-25T14:59:51.834Z,96507.81
2022-08-25T15:02:20.126Z,96567.69
2022-08-25T15:04:54.308Z,96532.44
2022-08-25T15:07:40.629Z,96525.22
2022-08-25T15:10:07.846Z,96557.22
2022-08-25T15:12:46.861Z,96512.06
2022-08-25T15:15:14.441Z,96515.78
2022-08-25T15:17:41.941Z,96562.91
2022-08-25T15:20:11.459Z,96438.91
2022-08-25T15:22:38.156Z,96531.13
2022-08-25T15:25:05.133Z,96507.00
2022-08-25T15:27:31.868Z,96520.97
2022-08-25T15:29:58.523Z,96517.06
2022-08-25T15:32:25.166Z,96562.66
2022-08-25T15:34:54.546Z,96556.75
2022-08-25T15:37:21.162Z,96588.00
2022-08-25T15:39:48.994Z,96560.09
2022-08-25T15:42:16.867Z,96322.91
2022-08-25T15:44:53.452Z,96407.50
2022-08-25T15:47:21.216Z,96526.81
2022-08-25T15:49:47.855Z,96331.13
2022-08-25T15:52:14.491Z,96511.75
2022-08-25T15:54:41.163Z,96483.63
2022-08-25T15:57:09.197Z,96545.72
2022-08-25T15:59:40.257Z,96562.31
2022-08-25T16:02:15.154Z,96561.53
2022-08-25T16:04:42.074Z,96534.53
2022-08-25T16:07:09.531Z,96552.50
2022-08-25T16:09:40.990Z,96446.59
2022-08-25T16:12:08.701Z,96476.47
2022-08-25T16:14:35.693Z,96509.63
2022-08-25T16:17:02.334Z,96542.56
2022-08-25T16:19:29.091Z,96474.13
2022-08-25T16:21:55.757Z,96463.44
2022-08-25T16:24:22.361Z,96493.63
2022-08-25T16:26:50.535Z,96511.97
2022-08-25T16:29:18.755Z,96543.03
2022-08-25T16:31:48.168Z,96565.13
2022-08-25T16:34:22.390Z,96543.69
2022-08-25T16:36:52.486Z,96564.47
2022-08-25T16:39:20.625Z,96438.19
2022-08-25T16:41:47.414Z,96501.03
2022-08-25T16:44:14.183Z,96557.38
2022-08-25T16:46:42.362Z,96560.03
2022-08-25T16:49:11.312Z,96475.53
2022-08-25T16:51:38.465Z,96526.28
2022-08-25T16:54:24.246Z,96543.63
2022-08-25T16:56:55.162Z,96516.91
2022-08-25T16:59:23.572Z,96345.91
2022-08-25T17:01:50.457Z,96532.84
2022-08-25T17:04:17.525Z,96364.75
2022-08-25T17:06:51.629Z,96518.97
2022-08-25T17:09:23.776Z,96512.50
2022-08-25T17:11:54.299Z,96493.41
2022-08-25T17:14:21.626Z,96410.91
2022-08-25T17:16:50.679Z,96463.34
2022-08-25T17:19:17.624Z,96443.94
2022-08-25T17:21:46.467Z,96397.31
2022-08-25T17:24:13.642Z,96491.59
2022-08-25T17:26:41.449Z,96429.84
2022-08-25T17:29:08.964Z,96536.63
2022-08-25T17:31:39.847Z,96525.78
2022-08-25T17:34:10.294Z,96351.69
2022-08-25T17:36:37.076Z,96512.75
2022-08-25T17:39:04.260Z,96512.50
2022-08-25T17:41:32.152Z,96504.75
2022-08-25T17:43:59.321Z,96544.00
2022-08-25T17:46:27.182Z,96454.38
2022-08-25T17:48:53.908Z,96415.97
2022-08-25T17:51:20.642Z,96463.09
2022-08-25T17:53:48.807Z,96486.19
2022-08-25T17:56:18.536Z,96568.16
2022-08-25T17:58:45.395Z,96479.13
2022-08-25T18:01:17.213Z,96504.41
2022-08-25T18:03:44.250Z,96441.19
2022-08-25T18:06:15.091Z,96533.72
2022-08-25T18:08:42.950Z,96403.25
2022-08-25T18:11:09.907Z,96495.75
2022-08-25T18:16:05.193Z,96521.34
2022-08-25T18:18:34.486Z,96524.38
2022-08-25T18:21:02.180Z,96537.38
2022-08-25T18:23:29.838Z,96293.13
2022-08-25T18:26:00.767Z,96372.59
2022-08-25T18:28:28.952Z,96489.19
2022-08-25T18:30:55.882Z,96590.72
2022-08-25T18:33:23.092Z,96494.53
2022-08-25T18:35:49.741Z,96559.19
2022-08-25T18:38:35.042Z,96489.09
2022-08-25T18:41:05.510Z,96574.75
2022-08-25T18:43:34.025Z,96582.97
2022-08-25T18:46:01.602Z,96498.22
2022-08-25T18:48:28.381Z,96499.03
2022-08-25T18:50:55.248Z,96599.94
2022-08-25T18:53:51.146Z,96599.94
2022-08-25T18:56:22.479Z,96582.69
2022-08-25T18:58:49.079Z,96564.69
2022-08-25T19:01:21.636Z,96606.22
2022-08-25T19:03:49.432Z,96461.25
2022-08-25T19:06:16.967Z,96463.47
2022-08-25T19:08:45.185Z,96582.88
2022-08-25T19:11:12.100Z,96511.06
2022-08-25T19:13:38.995Z,96589.53
2022-08-25T19:16:17.705Z,96534.06
2022-08-25T19:18:47.708Z,96408.47
2022-08-25T19:21:14.784Z,96598.09
2022-08-25T19:23:41.503Z,96551.41
2022-08-25T19:26:17.002Z,96521.09
2022-08-25T19:28:45.581Z,96486.25
2022-08-25T19:31:18.729Z,96527.16
2022-08-25T19:33:49.548Z,96535.59
2022-08-25T19:36:16.771Z,96583.81
2022-08-25T19:38:44.495Z,96522.00
2022-08-25T19:41:14.422Z,96616.25
2022-08-25T19:43:55.165Z,96528.94
2022-08-25T19:46:32.067Z,96521.50
2022-08-25T19:49:06.961Z,96489.88
2022-08-25T19:51:36.289Z,96540.28
2022-08-25T19:54:03.328Z,96570.22
2022-08-25T19:56:30.843Z,96331.25
2022-08-25T19:58:57.499Z,96488.00
2022-08-25T20:01:24.506Z,96533.00
2022-08-25T20:03:52.157Z,96526.47
2022-08-25T20:06:18.859Z,96521.03
2022-08-25T20:08:45.600Z,96484.63
2022-08-25T20:11:12.314Z,96383.47
2022-08-25T20:13:39.134Z,96388.88
2022-08-25T20:16:06.104Z,96595.97
2022-08-25T20:18:32.757Z,96574.63
2022-08-25T20:21:00.376Z,96591.97
2022-08-25T20:23:46.267Z,96301.09
2022-08-25T20:26:12.912Z,96537.31
2022-08-25T20:28:42.071Z,96527.22
2022-08-25T20:31:09.074Z,96548.63
2022-08-25T20:33:36.134Z,96557.13
2022-08-25T20:36:04.781Z,96537.19
2022-08-25T20:38:32.294Z,96510.16
2022-08-25T20:41:00.295Z,96381.16
2022-08-25T20:43:28.023Z,96546.94
2022-08-25T20:46:01.835Z,96551.78
2022-08-25T20:48:28.687Z,96551.81
2022-08-25T20:50:57.812Z,96472.94
2022-08-25T20:53:25.194Z,96451.22
2022-08-25T20:55:52.079Z,96552.69
2022-08-25T20:58:18.994Z,96545.28
2022-08-25T21:00:46.034Z,96487.59
2022-08-25T21:03:12.703Z,96548.34
2022-08-25T21:05:40.484Z,96521.09
2022-08-25T21:08:12.613Z,96584.66
2022-08-25T21:10:40.139Z,96550.91
2022-08-25T21:13:06.763Z,96512.78
2022-08-25T21:15:33.389Z,96551.94
2022-08-25T21:17:59.996Z,96338.19
2022-08-25T21:20:27.089Z,96537.06
2022-08-25T21:22:54.442Z,96494.69
2022-08-25T21:25:21.667Z,96420.00
2022-08-25T21:27:49.307Z,96427.31
2022-08-25T21:30:16.052Z,96372.28
2022-08-25T21:32:53.011Z,96503.19
2022-08-25T21:35:21.015Z,96273.69
2022-08-25T21:37:53.350Z,96507.59
2022-08-25T21:40:21.426Z,96541.09
2022-08-25T21:42:48.857Z,96549.38
2022-08-25T21:45:16.158Z,96572.56
2022-08-25T21:47:42.867Z,96529.81
2022-08-25T21:50:12.744Z,96535.22
2022-08-25T21:52:39.374Z,96310.81
2022-08-25T21:55:08.214Z,96503.19
2022-08-25T21:57:43.166Z,96496.53
2022-08-25T22:00:11.549Z,96460.63
2022-08-25T22:02:38.562Z,96527.66
2022-08-25T22:05:09.356Z,96508.09
2022-08-25T22:07:41.599Z,96338.47
2022-08-25T22:10:16.459Z,96569.25
2022-08-25T22:12:45.493Z,96538.81
2022-08-25T22:15:13.629Z,96520.03
2022-08-25T22:17:40.764Z,96459.69
2022-08-25T22:20:08.094Z,96199.16
2022-08-25T22:22:35.863Z,96371.97
2022-08-25T22:25:02.648Z,96457.06
2022-08-25T22:27:30.358Z,96428.44
2022-08-25T22:29:57.007Z,96427.81
2022-08-25T22:32:23.671Z,96425.41
2022-08-25T22:34:50.530Z,96561.44
2022-08-25T22:37:17.982Z,96480.25
2022-08-25T22:39:45.553Z,96448.38
2022-08-25T22:42:12.593Z,96426.81
2022-08-25T22:44:40.075Z,96521.44
2022-08-25T22:47:07.019Z,96499.44
2022-08-25T22:49:35.498Z,96431.25
2022-08-25T22:52:02.369Z,96426.63
2022-08-25T22:54:29.927Z,96448.19
2022-08-25T22:56:56.560Z,96483.31
2022-08-25T22:59:23.184Z,96448.41
2022-08-25T23:01:52.426Z,96490.75
2022-08-25T23:04:19.222Z,96412.69
2022-08-25T23:06:45.975Z,96463.31
2022-08-25T23:09:13.836Z,96489.59
2022-08-25T23:11:40.785Z,96273.34
2022-08-25T23:14:10.299Z,96433.09
2022-08-25T23:16:38.505Z,96482.28
2022-08-25T23:19:05.470Z,96504.50
2022-08-25T23:21:50.770Z,96373.75
2022-08-25T23:24:29.449Z,96475.03
2022-08-25T23:26:57.975Z,96444.56
2022-08-25T23:29:25.251Z,96463.31
2022-08-25T23:31:51.986Z,96420.56
2022-08-25T23:34:20.396Z,96484.13
2022-08-25T23:36:47.668Z,96350.94
2022-08-25T23:39:14.283Z,96432.25
2022-08-25T23:41:41.811Z,96469.34
2022-08-25T23:44:17.100Z,96513.38
2022-08-25T23:46:44.708Z,96286.06
2022-08-25T23:49:11.356Z,96391.31
2022-08-25T23:51:38.425Z,96462.13
2022-08-25T23:54:07.112Z,96402.03
2022-08-25T23:56:36.443Z,96370.34
2022-08-25T23:59:03.526Z,96320.09
